Time;durP1;ratioP1;P1;durP2;ratioP2;P2;SDS_P1;SDS_P2;PMS_P1;PMS_P2;Temp;Humidity;BMP_temperature;BMP_pressure;BME280_temperature;BME280_humidity;BME280_pressure;Samples;Min_cycle;Max_cycle;Signal;HPM_P1;HPM_P2
2023/03/08 00:00:59;;;;;;;14.30;13.50;;;1.50;99.90;;;;;;4931913;28;20195;-41
2023/03/08 00:03:25;;;;;;;14.63;13.82;;;1.50;99.90;;;;;;4934817;28;20238;-44
2023/03/08 00:05:51;;;;;;;13.50;12.80;;;1.50;99.90;;;;;;4937228;28;20188;-44
2023/03/08 00:08:17;;;;;;;14.00;13.30;;;1.50;99.90;;;;;;4937635;28;20241;-45
2023/03/08 00:10:43;;;;;;;13.57;12.88;;;1.50;99.90;;;;;;4940213;28;20242;-46
2023/03/08 00:13:09;;;;;;;14.10;13.30;;;1.50;99.90;;;;;;4938195;28;20256;-43
2023/03/08 00:15:36;;;;;;;14.20;13.50;;;1.50;99.90;;;;;;4938816;28;20671;-45
2023/03/08 00:18:02;;;;;;;14.15;13.35;;;1.50;99.90;;;;;;4937879;28;20705;-47
2023/03/08 00:20:28;;;;;;;14.40;13.60;;;1.50;99.90;;;;;;4936314;28;20193;-44
2023/03/08 00:22:54;;;;;;;14.80;13.90;;;1.50;99.90;;;;;;4939398;28;21248;-44
2023/03/08 00:25:19;;;;;;;14.30;13.50;;;1.50;99.90;;;;;;4939620;28;20200;-45
2023/03/08 00:27:45;;;;;;;14.80;13.90;;;1.50;99.90;;;;;;4938127;28;20185;-45
2023/03/08 00:30:12;;;;;;;14.90;14.00;;;1.50;99.90;;;;;;4938472;28;20188;-44
2023/03/08 00:32:37;;;;;;;14.38;13.48;;;1.50;99.90;;;;;;4939476;28;20432;-44
2023/03/08 00:35:03;;;;;;;14.80;13.90;;;1.60;99.90;;;;;;4940450;28;20307;-46
2023/03/08 00:37:29;;;;;;;15.05;14.15;;;1.60;99.90;;;;;;4938022;28;20332;-45
2023/03/08 00:39:55;;;;;;;15.07;14.13;;;1.60;99.90;;;;;;4934872;28;20184;-43
2023/03/08 00:42:21;;;;;;;15.33;14.33;;;1.60;99.90;;;;;;4933068;28;20196;-44
2023/03/08 00:44:47;;;;;;;15.45;14.45;;;1.60;99.90;;;;;;4935299;28;20185;-46
2023/03/08 00:47:13;;;;;;;16.00;15.00;;;1.60;99.90;;;;;;4938946;28;21019;-43
2023/03/08 00:49:39;;;;;;;15.90;14.70;;;1.60;99.90;;;;;;4939499;28;20478;-44
2023/03/08 00:52:05;;;;;;;15.23;14.33;;;1.60;99.90;;;;;;4938882;28;20644;-44
2023/03/08 00:54:31;;;;;;;15.27;14.30;;;1.60;99.90;;;;;;4938692;28;20247;-43
2023/03/08 00:56:56;;;;;;;14.55;13.75;;;1.60;99.90;;;;;;4938179;28;21834;-46
2023/03/08 00:59:22;;;;;;;13.93;13.13;;;1.60;99.90;;;;;;4939892;28;20204;-45
2023/03/08 01:01:48;;;;;;;14.40;13.60;;;1.70;99.90;;;;;;4939299;28;20181;-44
2023/03/08 01:04:14;;;;;;;13.77;12.90;;;1.60;99.90;;;;;;4938200;28;20536;-46
2023/03/08 01:06:42;;;;;;;13.00;12.30;;;1.60;99.90;;;;;;4939279;28;20268;-45
2023/03/08 01:09:08;;;;;;;13.90;13.10;;;1.60;99.90;;;;;;4939323;29;20749;-42
2023/03/08 01:11:34;;;;;;;13.70;12.90;;;1.70;99.90;;;;;;4936813;28;20189;-46
2023/03/08 01:14:00;;;;;;;13.90;13.20;;;1.70;99.90;;;;;;4939544;28;20537;-47
2023/03/08 01:16:28;;;;;;;13.43;12.70;;;1.60;99.90;;;;;;4937331;28;20216;-47
2023/03/08 01:18:55;;;;;;;13.60;12.80;;;1.70;99.90;;;;;;4938848;28;20224;-44
2023/03/08 01:21:21;;;;;;;12.82;12.13;;;1.60;99.90;;;;;;4940403;28;20776;-44
2023/03/08 01:23:47;;;;;;;13.82;13.02;;;1.60;99.90;;;;;;4938600;28;20188;-47
2023/03/08 01:26:15;;;;;;;14.80;13.90;;;1.60;99.90;;;;;;4941834;28;20203;-43
2023/03/08 01:28:41;;;;;;;14.57;13.60;;;1.60;99.90;;;;;;4942059;28;20188;-44
2023/03/08 01:31:11;;;;;;;14.98;13.90;;;1.60;99.90;;;;;;4942424;28;20267;-46
2023/03/08 01:33:37;;;;;;;15.10;14.10;;;1.60;99.90;;;;;;4941865;28;20196;-43
2023/03/08 01:36:04;;;;;;;15.97;14.97;;;1.70;99.90;;;;;;4943199;28;20232;-44
2023/03/08 01:38:30;;;;;;;14.85;13.88;;;1.60;99.90;;;;;;4942335;28;20489;-45
2023/03/08 01:40:57;;;;;;;15.00;14.03;;;1.60;99.90;;;;;;4941948;28;20186;-46
2023/03/08 01:43:27;;;;;;;15.75;14.63;;;1.60;99.90;;;;;;4941407;28;20702;-44
2023/03/08 01:46:23;;;;;;;15.90;14.80;;;1.60;99.90;;;;;;4941342;28;20195;-43
2023/03/08 01:49:11;;;;;;;15.15;14.13;;;1.60;99.90;;;;;;4941898;28;20295;-45
2023/03/08 01:51:42;;;;;;;14.90;14.00;;;1.60;99.90;;;;;;4941811;28;20212;-45
2023/03/08 01:54:19;;;;;;;14.98;13.98;;;1.50;99.90;;;;;;4939609;28;20537;-44
2023/03/08 01:56:48;;;;;;;15.35;14.27;;;1.60;99.90;;;;;;4942420;28;20590;-47
2023/03/08 01:59:14;;;;;;;14.75;13.85;;;1.60;99.90;;;;;;4941137;28;20208;-43
2023/03/08 02:01:40;;;;;;;14.97;13.97;;;1.50;99.90;;;;;;4940550;28;20279;-48
2023/03/08 02:04:08;;;;;;;15.20;14.23;;;1.50;99.90;;;;;;4940131;28;20452;-45
2023/03/08 02:06:34;;;;;;;15.52;14.32;;;1.50;99.90;;;;;;4941624;28;20448;-47
2023/03/08 02:09:03;;;;;;;14.87;13.87;;;1.50;99.90;;;;;;4941728;28;20814;-46
2023/03/08 02:11:30;;;;;;;15.50;14.50;;;1.50;99.90;;;;;;4941652;28;20523;-45
2023/03/08 02:13:56;;;;;;;15.52;14.52;;;1.50;99.90;;;;;;4941715;28;20199;-48
2023/03/08 02:16:22;;;;;;;15.40;14.30;;;1.50;99.90;;;;;;4940494;28;20219;-48
2023/03/08 02:18:52;;;;;;;15.37;14.37;;;1.50;99.90;;;;;;4941063;28;20223;-47
2023/03/08 02:21:18;;;;;;;15.10;14.00;;;1.50;99.90;;;;;;4941067;28;20192;-46
2023/03/08 02:23:43;;;;;;;15.60;14.40;;;1.40;99.90;;;;;;4940575;28;20200;-43
2023/03/08 02:26:09;;;;;;;15.87;14.67;;;1.40;99.90;;;;;;4941552;28;20199;-44
2023/03/08 02:28:35;;;;;;;15.17;14.17;;;1.40;99.90;;;;;;4940704;28;20546;-49
2023/03/08 02:31:00;;;;;;;15.53;14.33;;;1.40;99.90;;;;;;4940404;28;20192;-49
2023/03/08 02:33:26;;;;;;;15.93;14.73;;;1.40;99.90;;;;;;4940724;28;20280;-45
2023/03/08 02:35:52;;;;;;;15.63;14.53;;;1.40;99.90;;;;;;4940458;28;20219;-45
2023/03/08 02:38:19;;;;;;;16.17;15.00;;;1.40;99.90;;;;;;4941679;28;20929;-44
2023/03/08 02:40:46;;;;;;;15.48;14.27;;;1.40;99.90;;;;;;4941198;28;20222;-45
2023/03/08 02:43:11;;;;;;;16.10;14.90;;;1.40;99.90;;;;;;4938612;28;20223;-45
2023/03/08 02:45:37;;;;;;;15.67;14.47;;;1.50;99.90;;;;;;4941250;28;20193;-46
2023/03/08 02:48:04;;;;;;;15.20;14.23;;;1.50;99.90;;;;;;4941304;28;20212;-45
2023/03/08 02:50:30;;;;;;;15.88;14.68;;;1.50;99.90;;;;;;4944121;28;20652;-42
2023/03/08 02:52:56;;;;;;;15.15;14.05;;;1.50;99.90;;;;;;4941071;29;20222;-47
2023/03/08 02:55:22;;;;;;;14.50;13.60;;;1.50;99.90;;;;;;4940759;28;20234;-47
2023/03/08 02:57:47;;;;;;;15.33;14.23;;;1.50;99.90;;;;;;4942099;29;20429;-47
2023/03/08 03:00:13;;;;;;;14.73;13.63;;;1.60;99.90;;;;;;4942949;28;20193;-46
2023/03/08 03:02:38;;;;;;;16.67;15.20;;;1.60;99.90;;;;;;4943471;28;20828;-48
2023/03/08 03:05:09;;;;;;;15.20;14.10;;;1.50;99.90;;;;;;4942396;28;20689;-48
2023/03/08 03:07:36;;;;;;;16.52;15.25;;;1.60;99.90;;;;;;4941346;28;20294;-47
2023/03/08 03:10:03;;;;;;;16.15;14.80;;;1.60;99.90;;;;;;4942861;28;20197;-46
2023/03/08 03:12:29;;;;;;;15.82;14.52;;;1.60;99.90;;;;;;4941418;28;20387;-45
2023/03/08 03:14:55;;;;;;;15.38;14.27;;;1.60;99.90;;;;;;4941216;28;20199;-45
2023/03/08 03:17:21;;;;;;;15.10;14.00;;;1.50;99.90;;;;;;4940580;28;20243;-44
2023/03/08 03:19:46;;;;;;;15.60;14.30;;;1.50;99.90;;;;;;4939861;28;20231;-45
2023/03/08 03:22:12;;;;;;;17.07;15.70;;;1.50;99.90;;;;;;4940605;28;20269;-48
2023/03/08 03:24:38;;;;;;;17.60;16.00;;;1.50;99.90;;;;;;4939571;28;20271;-44
2023/03/08 03:27:04;;;;;;;16.47;15.27;;;1.50;99.90;;;;;;4940278;28;20460;-46
2023/03/08 03:29:29;;;;;;;17.10;15.70;;;1.50;99.90;;;;;;4941067;28;20200;-45
2023/03/08 03:31:55;;;;;;;15.80;14.50;;;1.40;99.90;;;;;;4940171;28;20201;-48
2023/03/08 03:34:21;;;;;;;15.60;14.27;;;1.40;99.90;;;;;;4939215;28;20307;-43
2023/03/08 03:36:46;;;;;;;15.57;14.30;;;1.40;99.90;;;;;;4941234;28;21176;-46
2023/03/08 03:39:12;;;;;;;15.57;14.30;;;1.30;99.90;;;;;;4940945;28;20655;-48
2023/03/08 03:41:38;;;;;;;15.87;14.67;;;1.40;99.90;;;;;;4941115;28;20316;-45
2023/03/08 03:44:04;;;;;;;16.13;14.83;;;1.40;99.90;;;;;;4939022;28;20249;-44
2023/03/08 03:46:29;;;;;;;15.77;14.50;;;1.40;99.90;;;;;;4940483;28;20294;-43
2023/03/08 03:48:55;;;;;;;15.90;14.37;;;1.30;99.90;;;;;;4938922;28;20454;-46
2023/03/08 03:51:22;;;;;;;16.37;14.93;;;1.30;99.90;;;;;;4939634;28;20290;-42
2023/03/08 03:53:48;;;;;;;16.20;14.85;;;1.30;99.90;;;;;;4936029;28;20207;-45
2023/03/08 03:56:16;;;;;;;17.02;15.52;;;1.30;99.90;;;;;;4940550;28;20217;-45
2023/03/08 03:58:43;;;;;;;16.55;15.07;;;1.30;99.90;;;;;;4939805;28;20193;-44
2023/03/08 04:01:19;;;;;;;16.52;15.05;;;1.30;99.90;;;;;;4939504;28;20197;-44
2023/03/08 04:03:46;;;;;;;16.65;15.27;;;1.40;99.90;;;;;;4939491;28;20606;-44
2023/03/08 04:06:15;;;;;;;17.02;15.68;;;1.30;99.90;;;;;;4938307;28;20203;-43
2023/03/08 04:08:41;;;;;;;16.50;15.00;;;1.30;99.90;;;;;;4940161;28;20652;-45
2023/03/08 04:11:13;;;;;;;16.70;15.10;;;1.30;99.90;;;;;;4939980;28;20228;-43
2023/03/08 04:13:39;;;;;;;15.57;14.02;;;1.30;99.90;;;;;;4940298;28;20209;-48
2023/03/08 04:16:16;;;;;;;16.48;15.18;;;1.40;99.90;;;;;;4937063;28;20212;-47
2023/03/08 04:18:42;;;;;;;16.42;14.85;;;1.40;99.90;;;;;;4938051;28;20235;-45
2023/03/08 04:21:08;;;;;;;16.95;15.55;;;1.40;99.90;;;;;;4939722;28;20193;-45
2023/03/08 04:23:34;;;;;;;16.73;15.27;;;1.40;99.90;;;;;;4937894;28;20218;-46
2023/03/08 04:26:00;;;;;;;16.75;15.23;;;1.40;99.90;;;;;;4939167;28;20525;-47
2023/03/08 04:28:27;;;;;;;16.55;15.05;;;1.40;99.90;;;;;;4939478;28;20203;-46
2023/03/08 04:30:53;;;;;;;16.80;15.32;;;1.40;99.90;;;;;;4939793;28;20959;-47
2023/03/08 04:33:18;;;;;;;18.08;16.40;;;1.40;99.90;;;;;;4939760;29;20686;-45
2023/03/08 04:35:44;;;;;;;18.20;16.43;;;1.40;99.90;;;;;;4939432;28;20216;-46
2023/03/08 04:38:11;;;;;;;18.00;16.30;;;1.50;99.90;;;;;;4939257;28;20271;-47
2023/03/08 04:41:00;;;;;;;17.67;15.82;;;1.50;99.90;;;;;;4936830;28;20287;-48
2023/03/08 04:43:22;;;;;;;17.92;16.25;;;1.50;99.90;;;;;;4939790;28;20185;-45
2023/03/08 04:45:48;;;;;;;17.43;15.73;;;1.50;99.90;;;;;;4939254;28;20195;-44
2023/03/08 04:48:13;;;;;;;17.53;15.87;;;1.50;99.90;;;;;;4940053;28;20197;-45
2023/03/08 04:50:39;;;;;;;17.97;16.17;;;1.50;99.90;;;;;;4940509;28;20192;-47
2023/03/08 04:53:07;;;;;;;18.50;16.63;;;1.60;99.90;;;;;;4938329;28;20193;-44
2023/03/08 04:55:35;;;;;;;17.25;15.50;;;1.50;99.90;;;;;;4937642;28;20174;-47
2023/03/08 04:58:01;;;;;;;18.00;16.10;;;1.50;99.90;;;;;;4935278;28;20270;-47
2023/03/08 05:00:26;;;;;;;16.63;14.87;;;1.60;99.90;;;;;;4942136;28;20192;-47
2023/03/08 05:02:52;;;;;;;16.93;15.33;;;1.50;99.90;;;;;;4941113;28;20185;-48
2023/03/08 05:05:18;;;;;;;15.40;14.00;;;1.50;99.90;;;;;;4941170;28;20240;-44
2023/03/08 05:07:43;;;;;;;17.90;16.10;;;1.50;99.90;;;;;;4942492;28;20199;-46
2023/03/08 05:10:09;;;;;;;17.53;15.73;;;1.50;99.90;;;;;;4943517;28;20193;-47
2023/03/08 05:12:35;;;;;;;18.52;15.70;;;1.50;99.90;;;;;;4941291;28;20749;-48
2023/03/08 05:15:00;;;;;;;17.70;15.47;;;1.50;99.90;;;;;;4942766;28;20192;-43
2023/03/08 05:17:26;;;;;;;18.87;16.67;;;1.50;99.90;;;;;;4934607;28;20216;-50
2023/03/08 05:19:52;;;;;;;18.60;16.70;;;1.60;99.90;;;;;;4944116;28;20239;-47
2023/03/08 05:22:17;;;;;;;17.60;16.00;;;1.60;99.90;;;;;;4940681;28;20550;-47
2023/03/08 05:24:43;;;;;;;20.03;17.40;;;1.60;99.90;;;;;;4940354;28;20224;-44
2023/03/08 05:27:09;;;;;;;19.17;17.17;;;1.60;99.90;;;;;;4942080;28;20196;-44
2023/03/08 05:29:36;;;;;;;17.87;16.17;;;1.60;99.90;;;;;;4941311;28;20298;-47
2023/03/08 05:32:02;;;;;;;18.90;16.85;;;1.60;99.90;;;;;;4941204;28;20442;-47
2023/03/08 05:34:29;;;;;;;18.88;16.90;;;1.60;99.90;;;;;;4940247;28;20278;-45
2023/03/08 05:36:54;;;;;;;19.05;16.08;;;1.50;99.90;;;;;;4939985;28;20755;-46
2023/03/08 05:39:20;;;;;;;21.23;17.60;;;1.50;99.90;;;;;;4941121;28;20192;-45
2023/03/08 05:41:47;;;;;;;19.60;17.50;;;1.50;99.90;;;;;;4942897;28;20193;-49
2023/03/08 05:44:13;;;;;;;21.35;18.17;;;1.50;99.90;;;;;;4941703;28;20216;-50
2023/03/08 05:46:38;;;;;;;20.17;18.07;;;1.50;99.90;;;;;;4940851;28;20396;-48
2023/03/08 05:49:05;;;;;;;20.43;17.23;;;1.60;99.90;;;;;;4941241;29;20217;-46
2023/03/08 05:51:30;;;;;;;20.45;18.20;;;1.60;99.90;;;;;;4943402;28;20455;-47
2023/03/08 05:53:56;;;;;;;20.37;17.33;;;1.60;99.90;;;;;;4941756;28;20196;-43
2023/03/08 05:56:23;;;;;;;19.30;17.20;;;1.60;99.90;;;;;;4941439;29;20209;-45
2023/03/08 05:58:49;;;;;;;22.63;18.15;;;1.60;99.90;;;;;;4942352;28;20191;-46
2023/03/08 06:01:24;;;;;;;19.80;17.70;;;1.70;99.90;;;;;;4940852;28;20216;-47
2023/03/08 06:03:52;;;;;;;24.20;19.15;;;1.70;99.90;;;;;;4940461;28;20199;-46
2023/03/08 06:06:19;;;;;;;20.20;17.45;;;1.70;99.90;;;;;;4924621;28;20655;-48
2023/03/08 06:08:45;;;;;;;23.45;19.38;;;1.70;99.90;;;;;;4941003;28;20192;-48
2023/03/08 06:11:11;;;;;;;20.13;18.13;;;1.80;99.90;;;;;;4938564;28;20550;-44
2023/03/08 06:13:37;;;;;;;19.13;16.87;;;1.70;99.90;;;;;;4940694;28;20197;-47
2023/03/08 06:16:04;;;;;;;21.47;19.27;;;1.80;99.90;;;;;;4941865;28;20865;-48
2023/03/08 06:18:29;;;;;;;21.27;18.55;;;1.80;99.90;;;;;;4941038;29;20826;-48
2023/03/08 06:21:05;;;;;;;23.27;19.17;;;1.80;99.90;;;;;;4942037;29;20283;-49
2023/03/08 06:23:32;;;;;;;23.98;20.15;;;1.80;99.90;;;;;;4941743;28;20180;-43
2023/03/08 06:25:58;;;;;;;22.25;19.85;;;1.80;99.90;;;;;;4941279;28;20200;-46
2023/03/08 06:28:25;;;;;;;20.88;18.67;;;1.80;99.90;;;;;;4940858;29;20598;-44
2023/03/08 06:30:50;;;;;;;21.38;19.13;;;1.90;99.90;;;;;;4940116;28;20232;-44
2023/03/08 06:33:17;;;;;;;19.33;17.40;;;1.90;99.90;;;;;;4938920;28;20615;-45
2023/03/08 06:35:54;;;;;;;19.38;17.45;;;1.90;99.90;;;;;;4941549;28;20232;-46
2023/03/08 06:38:19;;;;;;;21.55;18.00;;;1.90;99.90;;;;;;4941646;29;20510;-44
2023/03/08 06:40:45;;;;;;;20.70;18.60;;;2.00;99.90;;;;;;4942562;28;20193;-44
2023/03/08 06:43:10;;;;;;;21.07;18.93;;;2.00;99.90;;;;;;4941378;28;20319;-49
2023/03/08 06:45:39;;;;;;;19.93;17.90;;;2.00;99.90;;;;;;4939895;28;21193;-47
2023/03/08 06:48:05;;;;;;;21.08;18.65;;;2.10;99.90;;;;;;4938753;28;20178;-47
2023/03/08 06:50:32;;;;;;;22.23;19.93;;;2.10;99.90;;;;;;4941223;28;20192;-44
2023/03/08 06:52:57;;;;;;;21.50;19.30;;;2.20;99.90;;;;;;4939519;28;20196;-45
2023/03/08 06:55:23;;;;;;;21.07;17.90;;;2.20;99.90;;;;;;4940716;29;20601;-45
2023/03/08 06:57:49;;;;;;;21.13;19.03;;;2.20;99.90;;;;;;4940237;28;20868;-47
2023/03/08 07:00:15;;;;;;;20.17;18.17;;;2.30;99.90;;;;;;4940670;28;20185;-46
2023/03/08 07:02:40;;;;;;;19.17;17.27;;;2.30;99.90;;;;;;4940722;28;20354;-44
2023/03/08 07:05:06;;;;;;;19.33;17.53;;;2.40;99.90;;;;;;4939980;28;20444;-46
2023/03/08 07:07:34;;;;;;;19.70;17.90;;;2.40;99.90;;;;;;4940121;28;20534;-46
2023/03/08 07:10:00;;;;;;;19.15;17.25;;;2.50;99.90;;;;;;4939668;29;20594;-44
2023/03/08 07:12:25;;;;;;;19.77;17.87;;;2.60;99.90;;;;;;4939543;28;20263;-46
2023/03/08 07:14:52;;;;;;;18.80;17.00;;;2.60;99.90;;;;;;4940089;29;20185;-48
2023/03/08 07:17:18;;;;;;;19.55;17.73;;;2.70;99.90;;;;;;4939600;28;20304;-48
2023/03/08 07:19:44;;;;;;;22.05;19.95;;;2.70;99.90;;;;;;4940887;29;20290;-45
2023/03/08 07:22:11;;;;;;;22.40;20.30;;;2.70;99.90;;;;;;4940405;28;20197;-47
2023/03/08 07:24:37;;;;;;;21.23;19.30;;;2.80;99.90;;;;;;4939461;28;21396;-43
2023/03/08 07:27:03;;;;;;;21.05;19.27;;;2.80;99.90;;;;;;4940703;28;20194;-45
2023/03/08 07:29:30;;;;;;;22.35;20.20;;;2.90;99.90;;;;;;4941355;28;20217;-46
2023/03/08 07:31:56;;;;;;;21.83;19.77;;;3.00;99.90;;;;;;4940571;28;20189;-47
2023/03/08 07:34:22;;;;;;;21.73;19.63;;;3.00;99.90;;;;;;4940986;28;20830;-46
2023/03/08 07:36:48;;;;;;;22.10;20.07;;;3.10;99.90;;;;;;4940775;28;21085;-45
2023/03/08 07:39:15;;;;;;;21.85;19.70;;;3.20;99.90;;;;;;4940520;29;20181;-45
2023/03/08 07:41:41;;;;;;;21.15;19.25;;;3.20;99.90;;;;;;4939573;29;20637;-47
2023/03/08 07:44:06;;;;;;;22.47;20.57;;;3.30;99.90;;;;;;4940185;28;20268;-47
2023/03/08 07:46:32;;;;;;;23.43;21.30;;;3.30;99.90;;;;;;4941082;28;20254;-44
2023/03/08 07:48:57;;;;;;;22.10;20.17;;;3.30;99.90;;;;;;4940900;29;21098;-47
2023/03/08 07:51:24;;;;;;;21.80;20.00;;;3.40;99.90;;;;;;4936770;28;20197;-48
2023/03/08 07:53:51;;;;;;;23.90;21.70;;;3.50;99.90;;;;;;4939513;28;20181;-50
2023/03/08 07:56:17;;;;;;;22.85;20.73;;;3.50;99.90;;;;;;4939553;28;20289;-50
2023/03/08 07:58:42;;;;;;;22.13;20.33;;;3.50;99.90;;;;;;4939808;28;21464;-47
2023/03/08 08:01:10;;;;;;;21.97;20.20;;;3.50;99.90;;;;;;4939846;28;20730;-47
2023/03/08 08:03:37;;;;;;;22.00;20.20;;;3.60;99.90;;;;;;4939501;28;20585;-46
2023/03/08 08:06:06;;;;;;;22.38;20.48;;;3.60;99.90;;;;;;4939699;28;20224;-46
2023/03/08 08:08:32;;;;;;;21.58;19.88;;;3.70;99.90;;;;;;4939195;29;20284;-49
2023/03/08 08:10:58;;;;;;;22.03;20.13;;;3.70;99.90;;;;;;4939453;29;20182;-47
2023/03/08 08:13:23;;;;;;;21.90;20.10;;;3.80;99.90;;;;;;4938583;28;20199;-49
2023/03/08 08:15:59;;;;;;;21.97;20.20;;;3.90;99.90;;;;;;4939446;28;20468;-47
2023/03/08 08:18:25;;;;;;;23.17;21.27;;;3.90;99.90;;;;;;4938005;29;20221;-44
2023/03/08 08:20:59;;;;;;;23.17;21.30;;;4.00;99.90;;;;;;4939285;28;20192;-46
2023/03/08 08:23:24;;;;;;;21.40;19.60;;;4.10;99.90;;;;;;4938339;28;20471;-47
2023/03/08 08:25:50;;;;;;;21.20;19.60;;;4.20;99.90;;;;;;4939002;29;20190;-45
2023/03/08 08:28:15;;;;;;;22.47;20.57;;;4.20;99.90;;;;;;4939320;28;20276;-48
2023/03/08 08:30:41;;;;;;;21.70;20.00;;;4.20;99.90;;;;;;4937572;29;20192;-46
2023/03/08 08:33:06;;;;;;;21.30;19.63;;;4.30;99.90;;;;;;4938702;28;20185;-50
2023/03/08 08:35:32;;;;;;;21.93;20.30;;;4.40;99.90;;;;;;4938288;28;20197;-49
2023/03/08 08:37:58;;;;;;;22.03;20.27;;;4.40;99.90;;;;;;4938767;28;21074;-45
2023/03/08 08:40:23;;;;;;;20.97;19.47;;;4.40;99.90;;;;;;4939199;29;20196;-49
2023/03/08 08:42:50;;;;;;;18.77;17.57;;;4.40;99.90;;;;;;4938942;28;20182;-45
2023/03/08 08:45:16;;;;;;;20.20;18.80;;;4.50;99.90;;;;;;4939103;28;21230;-44
2023/03/08 08:47:42;;;;;;;20.27;18.87;;;4.60;99.90;;;;;;4938991;29;20223;-44
2023/03/08 08:50:08;;;;;;;21.23;19.57;;;4.50;99.90;;;;;;4938035;28;20180;-47
2023/03/08 08:52:34;;;;;;;19.90;18.50;;;4.70;99.90;;;;;;4939018;29;20189;-49
2023/03/08 08:55:00;;;;;;;21.47;19.90;;;4.70;99.90;;;;;;4938709;29;20193;-50
2023/03/08 08:57:26;;;;;;;22.30;20.45;;;4.80;99.90;;;;;;4938911;29;20540;-49
2023/03/08 08:59:51;;;;;;;21.90;20.07;;;4.80;99.90;;;;;;4938601;28;20196;-50
2023/03/08 09:02:17;;;;;;;21.57;19.80;;;4.80;99.90;;;;;;4938997;28;20199;-47
2023/03/08 09:04:43;;;;;;;21.93;20.23;;;4.70;99.90;;;;;;4939086;28;20185;-49
2023/03/08 09:07:08;;;;;;;20.90;19.20;;;4.70;99.90;;;;;;4938888;29;20185;-46
2023/03/08 09:09:34;;;;;;;20.27;18.77;;;4.60;99.90;;;;;;4939554;29;20189;-48
2023/03/08 09:11:59;;;;;;;21.60;19.80;;;4.70;99.90;;;;;;4937203;28;20521;-50
2023/03/08 09:14:25;;;;;;;19.43;18.03;;;4.60;99.90;;;;;;4939849;29;20196;-45
2023/03/08 09:16:51;;;;;;;20.40;18.87;;;4.60;99.90;;;;;;4939302;29;20708;-49
2023/03/08 09:19:17;;;;;;;19.67;18.08;;;4.50;99.90;;;;;;4939362;28;21011;-53
2023/03/08 09:21:43;;;;;;;20.83;19.20;;;4.40;99.90;;;;;;4939201;28;20181;-46
2023/03/08 09:24:10;;;;;;;19.57;17.83;;;4.50;99.90;;;;;;4936775;28;20189;-51
2023/03/08 09:26:35;;;;;;;19.73;18.08;;;4.60;99.90;;;;;;4938117;28;20200;-50
2023/03/08 09:29:04;;;;;;;18.43;17.03;;;4.40;99.90;;;;;;4938918;28;20193;-49
2023/03/08 09:31:31;;;;;;;18.50;17.10;;;4.40;99.90;;;;;;4938094;28;20266;-49
2023/03/08 09:33:56;;;;;;;18.83;17.13;;;4.50;99.90;;;;;;4938643;28;20220;-49
2023/03/08 09:36:22;;;;;;;18.03;16.43;;;4.50;99.90;;;;;;4937711;28;20237;-51
2023/03/08 09:38:49;;;;;;;17.60;16.30;;;4.50;99.90;;;;;;4937370;28;20413;-50
2023/03/08 09:41:42;;;;;;;18.83;17.27;;;4.40;99.90;;;;;;4937177;28;20181;-49
2023/03/08 09:44:14;;;;;;;19.02;17.42;;;4.40;99.90;;;;;;4937682;28;20177;-51
2023/03/08 09:46:45;;;;;;;18.95;17.50;;;4.40;99.90;;;;;;4939628;29;20185;-49
2023/03/08 09:49:21;;;;;;;18.40;17.00;;;4.50;99.90;;;;;;4940353;28;20189;-53
2023/03/08 09:51:52;;;;;;;18.25;16.85;;;4.60;99.90;;;;;;4941936;28;20205;-51
2023/03/08 09:54:22;;;;;;;19.08;17.58;;;4.70;99.90;;;;;;4942158;28;20185;-50
2023/03/08 09:56:50;;;;;;;18.83;17.40;;;5.00;99.90;;;;;;4939552;28;20193;-56
2023/03/08 09:59:25;;;;;;;18.25;16.85;;;5.00;99.90;;;;;;4941630;28;20192;-47
2023/03/08 10:02:09;;;;;;;17.40;16.10;;;5.00;99.90;;;;;;4941214;28;20185;-48
2023/03/08 10:04:48;;;;;;;16.60;15.40;;;5.10;99.90;;;;;;4940917;28;20188;-50
2023/03/08 10:07:26;;;;;;;17.10;15.90;;;5.20;99.90;;;;;;4938659;28;20193;-46
2023/03/08 10:10:19;;;;;;;16.85;15.65;;;5.30;99.90;;;;;;4940317;28;20219;-48
2023/03/08 10:12:59;;;;;;;17.00;15.75;;;5.40;99.90;;;;;;4940098;28;20262;-50
2023/03/08 10:15:27;;;;;;;16.20;15.02;;;5.40;99.90;;;;;;4936121;28;20275;-48
2023/03/08 10:17:55;;;;;;;17.02;15.82;;;5.40;99.90;;;;;;4940461;29;20249;-50
2023/03/08 10:20:30;;;;;;;16.40;15.30;;;5.50;99.90;;;;;;4940683;28;20192;-48
2023/03/08 10:23:01;;;;;;;15.80;14.80;;;5.40;99.90;;;;;;4941753;29;20262;-51
2023/03/08 10:25:30;;;;;;;15.52;14.52;;;5.30;99.90;;;;;;4941385;28;20239;-50
2023/03/08 10:27:58;;;;;;;15.70;14.57;;;5.40;99.90;;;;;;4941221;29;20186;-49
2023/03/08 10:30:33;;;;;;;16.30;15.20;;;5.30;99.90;;;;;;4940879;28;20193;-49
2023/03/08 10:33:02;;;;;;;15.48;14.55;;;5.30;99.90;;;;;;4940135;28;20262;-52
2023/03/08 10:35:58;;;;;;;17.10;15.90;;;5.20;99.90;;;;;;4941298;29;20205;-50
2023/03/08 10:38:30;;;;;;;16.50;15.35;;;5.00;99.90;;;;;;4935373;28;20200;-47
2023/03/08 10:41:05;;;;;;;15.95;14.95;;;4.90;99.90;;;;;;4941143;28;20513;-47
2023/03/08 10:43:35;;;;;;;17.05;15.85;;;5.00;99.90;;;;;;4941374;29;20192;-50
2023/03/08 10:46:09;;;;;;;16.20;15.20;;;5.10;99.90;;;;;;4941217;29;20178;-50
2023/03/08 10:48:35;;;;;;;17.05;15.85;;;5.20;99.90;;;;;;4933332;29;20599;-50
2023/03/08 10:51:14;;;;;;;15.90;14.90;;;5.20;99.90;;;;;;4940956;28;20177;-51
2023/03/08 10:53:39;;;;;;;16.70;15.50;;;5.20;99.90;;;;;;4940683;28;20247;-46
2023/03/08 10:56:25;;;;;;;17.13;16.03;;;5.20;99.90;;;;;;4940539;28;20217;-52
2023/03/08 10:58:54;;;;;;;17.30;15.95;;;5.30;99.90;;;;;;4940708;28;20189;-50
2023/03/08 11:01:51;;;;;;;18.08;16.70;;;5.20;99.90;;;;;;4940711;28;20181;-50
2023/03/08 11:04:19;;;;;;;18.58;17.08;;;5.10;99.90;;;;;;4940410;28;20185;-49
2023/03/08 11:06:45;;;;;;;19.17;17.75;;;5.20;99.90;;;;;;4941378;28;20177;-48
2023/03/08 11:09:32;;;;;;;19.07;17.67;;;5.20;99.90;;;;;;4941036;28;20196;-49
2023/03/08 11:11:59;;;;;;;19.30;17.80;;;5.20;99.90;;;;;;4941127;28;20288;-49
2023/03/08 11:14:25;;;;;;;20.88;19.17;;;5.10;99.90;;;;;;4940368;28;20194;-50
2023/03/08 11:17:16;;;;;;;20.40;18.80;;;5.10;99.90;;;;;;4934440;29;20240;-50
2023/03/08 11:19:58;;;;;;;19.30;17.90;;;5.10;99.90;;;;;;4940429;28;20271;-49
2023/03/08 11:22:33;;;;;;;20.70;19.10;;;5.00;99.90;;;;;;4939597;28;20204;-52
2023/03/08 11:25:31;;;;;;;21.35;19.65;;;5.10;99.90;;;;;;4939922;28;20239;-47
2023/03/08 11:28:01;;;;;;;21.55;19.80;;;5.10;99.90;;;;;;4940888;29;20200;-46
2023/03/08 11:30:53;;;;;;;22.15;20.35;;;5.30;99.90;;;;;;4940804;29;20186;-50
2023/03/08 11:33:24;;;;;;;22.75;20.85;;;5.40;99.90;;;;;;4937538;28;20201;-49
2023/03/08 11:36:14;;;;;;;22.98;21.00;;;5.50;99.90;;;;;;4937827;28;20185;-45
2023/03/08 11:38:41;;;;;;;23.90;21.80;;;5.40;99.90;;;;;;4958749;28;20594;-46
2023/03/08 11:41:40;;;;;;;22.95;20.85;;;5.40;99.90;;;;;;4940169;28;20292;-48
2023/03/08 11:44:18;;;;;;;24.63;22.38;;;5.40;99.90;;;;;;4938788;28;20190;-46
2023/03/08 11:46:58;;;;;;;24.85;22.55;;;5.50;99.90;;;;;;4940474;28;20185;-47
2023/03/08 11:49:33;;;;;;;25.88;23.35;;;5.50;99.90;;;;;;4939236;28;20208;-48
2023/03/08 11:52:14;;;;;;;26.50;24.00;;;5.60;99.90;;;;;;4940085;28;20193;-48
2023/03/08 11:55:19;;;;;;;29.27;26.30;;;5.60;99.90;;;;;;4939773;28;20634;-49
2023/03/08 11:57:51;;;;;;;28.80;25.90;;;5.50;99.90;;;;;;4939233;29;20239;-49
2023/03/08 12:00:34;;;;;;;28.80;26.00;;;5.50;99.90;;;;;;4939688;28;20550;-49
2023/03/08 12:03:09;;;;;;;29.35;26.50;;;5.50;99.90;;;;;;4939570;29;20185;-47
2023/03/08 12:05:41;;;;;;;29.50;26.40;;;5.50;99.90;;;;;;4938221;28;20965;-48
2023/03/08 12:08:15;;;;;;;28.95;26.13;;;5.60;99.90;;;;;;4939251;28;20244;-46
2023/03/08 12:10:50;;;;;;;28.45;25.58;;;5.60;99.90;;;;;;4938131;29;20189;-47
2023/03/08 12:13:33;;;;;;;28.10;25.40;;;5.70;99.90;;;;;;4938780;28;20299;-51
2023/03/08 12:16:29;;;;;;;28.90;26.10;;;5.60;99.90;;;;;;4940397;29;20205;-46
2023/03/08 12:19:25;;;;;;;29.73;26.67;;;5.60;99.90;;;;;;4940010;29;20233;-48
2023/03/08 12:22:23;;;;;;;28.40;25.63;;;5.60;99.90;;;;;;4924781;28;20204;-50
2023/03/08 12:25:14;;;;;;;28.92;26.23;;;5.60;99.90;;;;;;4946749;28;20205;-48
2023/03/08 12:27:58;;;;;;;28.50;25.83;;;5.60;99.90;;;;;;4940416;28;20224;-47
2023/03/08 12:30:49;;;;;;;28.05;25.38;;;5.60;99.90;;;;;;4940260;28;20636;-47
2023/03/08 12:33:16;;;;;;;29.30;26.50;;;5.50;99.90;;;;;;4940186;29;20182;-49
2023/03/08 12:35:58;;;;;;;28.70;26.00;;;5.50;99.90;;;;;;4940087;28;20196;-51
2023/03/08 12:38:28;;;;;;;27.25;24.90;;;5.50;99.90;;;;;;4939942;28;20213;-46
2023/03/08 12:40:54;;;;;;;27.70;25.05;;;5.50;99.90;;;;;;4940308;28;20204;-45
2023/03/08 12:43:20;;;;;;;27.02;24.52;;;5.30;99.90;;;;;;4937578;29;20189;-51
2023/03/08 12:46:07;;;;;;;28.13;25.53;;;5.40;99.90;;;;;;4939331;28;21196;-51